createdAt,value
2018-12-17T00:02:03.597Z,4.83
2018-12-17T00:04:32.323Z,4.70
2018-12-17T00:07:00.717Z,4.90
2018-12-17T00:09:29.084Z,5.23
2018-12-17T00:11:57.472Z,5.13
2018-12-17T00:14:25.877Z,4.60
2018-12-17T00:16:54.256Z,4.43
2018-12-17T00:19:22.641Z,4.70
2018-12-17T00:21:51.073Z,4.83
2018-12-17T00:24:19.435Z,4.40
2018-12-17T00:26:47.832Z,4.70
2018-12-17T00:29:16.220Z,4.27
2018-12-17T00:31:44.613Z,4.20
2018-12-17T00:34:13.008Z,4.73
2018-12-17T00:36:41.393Z,4.50
2018-12-17T00:39:09.755Z,5.10
2018-12-17T00:41:38.152Z,4.00
2018-12-17T00:44:06.532Z,4.60
2018-12-17T00:46:34.912Z,4.70
2018-12-17T00:49:03.324Z,4.37
2018-12-17T00:51:31.804Z,4.97
2018-12-17T00:54:00.172Z,4.67
2018-12-17T00:56:28.559Z,4.93
2018-12-17T00:58:56.934Z,5.03
2018-12-17T01:01:25.419Z,4.90
2018-12-17T01:03:53.820Z,4.90
2018-12-17T01:06:22.194Z,5.13
2018-12-17T01:08:50.572Z,5.13
2018-12-17T01:11:18.961Z,5.20
2018-12-17T01:13:47.782Z,5.20
2018-12-17T01:16:16.160Z,5.40
2018-12-17T01:18:44.562Z,5.20
2018-12-17T01:21:12.940Z,5.47
2018-12-17T01:23:41.632Z,5.27
2018-12-17T01:26:10.029Z,4.63
2018-12-17T01:28:38.609Z,4.50
2018-12-17T01:31:07.018Z,5.40
2018-12-17T01:33:35.524Z,4.83
2018-12-17T01:36:04.004Z,4.90
2018-12-17T01:38:32.384Z,4.77
2018-12-17T01:41:00.884Z,6.00
2018-12-17T01:43:29.298Z,5.00
2018-12-17T01:45:57.657Z,5.07
2018-12-17T01:48:26.043Z,4.90
2018-12-17T01:50:54.432Z,5.13
2018-12-17T01:53:22.795Z,5.83
2018-12-17T01:55:51.192Z,5.20
2018-12-17T01:58:19.552Z,5.93
2018-12-17T02:00:47.952Z,5.57
2018-12-17T02:03:16.320Z,6.20
2018-12-17T02:05:44.680Z,6.70
2018-12-17T02:08:13.065Z,6.40
2018-12-17T02:10:41.432Z,6.30
2018-12-17T02:13:09.825Z,6.30
2018-12-17T02:15:38.421Z,5.90
2018-12-17T02:18:06.832Z,6.50
2018-12-17T02:20:35.198Z,5.37
2018-12-17T02:23:03.593Z,5.90
2018-12-17T02:25:32.084Z,5.80
2018-12-17T02:28:00.450Z,5.33
2018-12-17T02:30:28.836Z,5.13
2018-12-17T02:32:57.204Z,5.77
2018-12-17T02:35:25.593Z,4.87
2018-12-17T02:37:53.961Z,6.30
2018-12-17T02:40:22.333Z,6.03
2018-12-17T02:42:50.719Z,5.67
2018-12-17T02:45:19.088Z,5.30
2018-12-17T02:47:47.512Z,5.87
2018-12-17T02:50:15.886Z,6.37
2018-12-17T02:52:44.259Z,5.33
2018-12-17T02:55:12.785Z,5.73
2018-12-17T02:57:41.169Z,5.53
2018-12-17T03:00:10.244Z,5.53
2018-12-17T03:02:38.628Z,5.43
2018-12-17T03:05:07.452Z,6.10
2018-12-17T03:07:35.854Z,6.30
2018-12-17T03:10:05.025Z,5.90
2018-12-17T03:12:33.419Z,5.60
2018-12-17T03:15:01.784Z,5.67
2018-12-17T03:17:30.224Z,6.17
2018-12-17T03:19:58.685Z,5.40
2018-12-17T03:22:27.049Z,6.07
2018-12-17T03:24:55.470Z,6.40
2018-12-17T03:27:23.837Z,5.83
2018-12-17T03:29:52.239Z,5.90
2018-12-17T03:32:20.654Z,6.43
2018-12-17T03:34:49.015Z,5.90
2018-12-17T03:37:17.408Z,5.47
2018-12-17T03:39:45.778Z,5.83
2018-12-17T03:42:14.148Z,6.13
2018-12-17T03:44:42.800Z,6.87
2018-12-17T03:47:11.155Z,5.80
2018-12-17T03:49:39.567Z,6.47
2018-12-17T03:52:07.937Z,5.60
2018-12-17T03:54:36.308Z,5.77
2018-12-17T03:57:04.820Z,6.53
2018-12-17T03:59:33.185Z,6.07
2018-12-17T04:02:01.586Z,6.33
2018-12-17T04:04:30.171Z,5.83
2018-12-17T04:06:58.556Z,5.97
2018-12-17T04:09:26.963Z,5.40
2018-12-17T04:11:55.331Z,6.70
2018-12-17T04:14:23.717Z,6.33
2018-12-17T04:16:52.080Z,6.10
2018-12-17T04:19:20.482Z,5.73
2018-12-17T04:21:48.865Z,5.83
2018-12-17T04:24:17.259Z,6.07
2018-12-17T04:26:45.659Z,6.80
2018-12-17T04:29:14.025Z,6.13
2018-12-17T04:31:42.422Z,7.33
2018-12-17T04:34:10.789Z,7.60
2018-12-17T04:36:39.166Z,7.53
2018-12-17T04:39:07.584Z,7.37
2018-12-17T04:41:36.001Z,7.57
2018-12-17T04:44:04.620Z,7.00
2018-12-17T04:46:33.015Z,7.20
2018-12-17T04:49:01.529Z,7.67
2018-12-17T04:51:30.051Z,7.03
2018-12-17T04:53:58.444Z,7.27
2018-12-17T04:56:26.821Z,7.30
2018-12-17T04:58:55.207Z,6.87
2018-12-17T05:01:23.579Z,5.90
2018-12-17T05:03:51.966Z,6.27
2018-12-17T05:06:20.374Z,6.73
2018-12-17T05:08:48.771Z,6.23
2018-12-17T05:11:17.140Z,7.10
2018-12-17T05:13:45.660Z,6.67
2018-12-17T05:16:14.025Z,6.27
2018-12-17T05:18:42.403Z,6.10
2018-12-17T05:21:10.795Z,6.83
2018-12-17T05:23:39.162Z,6.73
2018-12-17T05:26:07.551Z,5.80
2018-12-17T05:28:35.928Z,6.67
2018-12-17T05:31:04.316Z,6.67
2018-12-17T05:33:32.821Z,6.97
2018-12-17T05:36:01.513Z,6.77
2018-12-17T05:38:30.051Z,8.17
2018-12-17T05:40:58.537Z,12.20
2018-12-17T05:43:26.929Z,12.27
2018-12-17T05:45:55.324Z,8.97
2018-12-17T05:48:23.695Z,8.17
2018-12-17T05:50:52.080Z,8.50
2018-12-17T05:53:20.442Z,7.87
2018-12-17T05:55:48.810Z,7.90
2018-12-17T05:58:17.200Z,7.80
2018-12-17T06:00:45.570Z,8.20
2018-12-17T06:03:13.985Z,8.70
2018-12-17T06:05:42.344Z,8.10
2018-12-17T06:08:13.097Z,9.47
2018-12-17T06:10:41.524Z,7.83
2018-12-17T06:13:09.891Z,8.00
2018-12-17T06:15:38.276Z,8.83
2018-12-17T06:18:06.644Z,9.03
2018-12-17T06:20:35.300Z,9.47
2018-12-17T06:23:03.784Z,9.50
2018-12-17T06:25:32.156Z,9.57
2018-12-17T06:28:00.549Z,10.47
2018-12-17T06:30:28.920Z,9.77
2018-12-17T06:32:57.321Z,10.20
2018-12-17T06:35:25.696Z,9.93
2018-12-17T06:37:54.060Z,9.63
2018-12-17T06:40:22.464Z,10.27
2018-12-17T06:42:50.837Z,10.20
2018-12-17T06:45:19.240Z,9.33
2018-12-17T06:47:47.609Z,10.43
2018-12-17T06:50:15.985Z,9.30
2018-12-17T06:52:44.381Z,10.60
2018-12-17T06:55:12.765Z,10.87
2018-12-17T06:57:41.389Z,10.97
2018-12-17T07:00:10.048Z,9.93
2018-12-17T07:02:38.428Z,9.93
2018-12-17T07:05:07.080Z,10.03
2018-12-17T07:07:35.592Z,11.27
2018-12-17T07:10:04.614Z,10.20
2018-12-17T07:12:32.997Z,10.03
2018-12-17T07:15:01.379Z,10.10
2018-12-17T07:17:29.788Z,9.37
2018-12-17T07:19:58.183Z,9.77
2018-12-17T07:22:26.582Z,10.10
2018-12-17T07:24:55.226Z,9.63
2018-12-17T07:27:23.647Z,9.70
2018-12-17T07:29:52.336Z,9.53
2018-12-17T07:32:20.829Z,9.40
2018-12-17T07:34:49.460Z,9.47
2018-12-17T07:37:18.118Z,8.53
2018-12-17T07:39:46.872Z,9.07
2018-12-17T07:42:15.250Z,9.87
2018-12-17T07:44:43.791Z,8.43
2018-12-17T07:47:12.175Z,7.17
2018-12-17T07:49:40.608Z,8.00
2018-12-17T07:52:08.998Z,7.60
2018-12-17T07:54:37.399Z,7.53
2018-12-17T07:57:05.793Z,7.40
2018-12-17T07:59:34.319Z,6.43
2018-12-17T08:02:02.734Z,7.60
2018-12-17T08:04:31.141Z,6.87
2018-12-17T08:06:59.662Z,7.90
2018-12-17T08:09:28.041Z,7.10
2018-12-17T08:11:56.456Z,6.73
2018-12-17T08:14:24.848Z,6.83
2018-12-17T08:16:53.768Z,6.23
2018-12-17T08:19:22.136Z,6.63
2018-12-17T08:21:50.538Z,7.27
2018-12-17T08:24:18.928Z,6.17
2018-12-17T08:26:47.345Z,8.43
2018-12-17T08:29:15.774Z,6.60
2018-12-17T08:31:44.241Z,7.87
2018-12-17T08:34:12.632Z,6.97
2018-12-17T08:36:41.056Z,7.40
2018-12-17T08:39:09.442Z,7.10
2018-12-17T08:41:37.868Z,7.23
2018-12-17T08:44:06.252Z,6.67
2018-12-17T08:46:34.636Z,6.17
2018-12-17T08:49:03.040Z,6.63
2018-12-17T08:51:31.416Z,7.47
2018-12-17T08:53:59.809Z,7.20
2018-12-17T08:56:28.168Z,6.80
2018-12-17T08:58:56.548Z,6.63
2018-12-17T09:01:25.305Z,6.70
2018-12-17T09:03:53.729Z,6.77
2018-12-17T09:06:22.167Z,7.07
2018-12-17T09:08:50.544Z,7.10
2018-12-17T09:11:18.921Z,6.73
2018-12-17T09:13:47.313Z,6.60
2018-12-17T09:16:15.690Z,6.50
2018-12-17T09:18:44.088Z,7.23
2018-12-17T09:21:12.462Z,6.87
2018-12-17T09:23:40.868Z,6.20
2018-12-17T09:26:09.253Z,7.57
2018-12-17T09:28:37.655Z,6.70
2018-12-17T09:31:06.167Z,7.70
2018-12-17T09:33:34.572Z,7.33
2018-12-17T09:36:02.977Z,7.50
2018-12-17T09:38:31.396Z,8.40
2018-12-17T09:40:59.770Z,8.20
2018-12-17T09:43:28.160Z,7.63
2018-12-17T09:45:56.540Z,7.80
2018-12-17T09:48:24.935Z,7.87
2018-12-17T09:50:53.332Z,6.80
2018-12-17T09:53:21.729Z,6.77
2018-12-17T09:55:50.096Z,7.20
2018-12-17T09:58:18.488Z,7.40
2018-12-17T10:00:46.893Z,6.43
2018-12-17T10:03:15.287Z,7.00
2018-12-17T10:05:43.797Z,7.23
2018-12-17T10:08:12.173Z,8.10
2018-12-17T10:10:40.574Z,8.13
2018-12-17T10:13:08.969Z,6.50
2018-12-17T10:15:37.378Z,5.27
2018-12-17T10:18:05.799Z,4.30
2018-12-17T10:20:34.196Z,4.47
2018-12-17T10:23:02.688Z,4.07
2018-12-17T10:25:31.095Z,4.93
2018-12-17T10:27:59.497Z,4.70
2018-12-17T10:30:32.559Z,4.13
2018-12-17T10:32:58.287Z,4.20
2018-12-17T10:35:26.700Z,4.50
2018-12-17T10:37:55.077Z,4.37
2018-12-17T10:40:23.592Z,4.33
2018-12-17T10:42:51.954Z,4.40
2018-12-17T10:45:20.465Z,4.03
2018-12-17T10:47:48.848Z,5.03
2018-12-17T10:50:17.237Z,5.30
2018-12-17T10:52:45.604Z,4.97
2018-12-17T10:55:14.063Z,5.03
2018-12-17T10:57:42.449Z,5.70
2018-12-17T11:00:16.734Z,4.70
2018-12-17T11:02:45.121Z,4.80
2018-12-17T11:05:16.729Z,5.07
2018-12-17T11:07:45.216Z,5.83
2018-12-17T11:10:13.723Z,4.93
2018-12-17T11:12:42.128Z,5.87
2018-12-17T11:15:11.531Z,6.00
2018-12-17T11:17:40.358Z,5.20
2018-12-17T11:20:10.450Z,5.50
2018-12-17T11:22:38.876Z,5.57
2018-12-17T11:25:07.957Z,5.43
2018-12-17T11:27:36.481Z,5.83
2018-12-17T11:30:05.916Z,5.83
2018-12-17T11:32:34.320Z,6.23
2018-12-17T11:35:02.709Z,5.60
2018-12-17T11:37:31.092Z,5.93
2018-12-17T11:39:59.480Z,6.23
2018-12-17T11:42:27.867Z,6.17
2018-12-17T11:44:56.290Z,6.00
2018-12-17T11:47:24.677Z,6.30
2018-12-17T11:49:53.084Z,5.90
2018-12-17T11:52:21.468Z,5.40
2018-12-17T11:54:49.857Z,5.97
2018-12-17T11:58:24.476Z,6.07
2018-12-17T12:01:03.954Z,5.57
2018-12-17T12:03:33.560Z,5.93
2018-12-17T12:06:01.946Z,6.53
2018-12-17T12:08:30.436Z,6.53
2018-12-17T12:10:58.953Z,6.43
2018-12-17T12:13:27.338Z,6.43
2018-12-17T12:15:55.784Z,5.90
2018-12-17T12:18:24.147Z,6.17
2018-12-17T12:20:52.564Z,5.97
2018-12-17T12:23:20.944Z,5.40
2018-12-17T12:25:49.348Z,5.10
2018-12-17T12:28:17.713Z,5.20
2018-12-17T12:30:46.113Z,4.97
2018-12-17T12:33:14.485Z,5.40
2018-12-17T12:35:42.888Z,5.20
2018-12-17T12:38:11.264Z,5.33
2018-12-17T12:40:39.653Z,5.63
2018-12-17T12:43:08.024Z,5.93
2018-12-17T12:45:36.420Z,5.40
2018-12-17T12:48:04.788Z,5.87
2018-12-17T12:50:33.186Z,5.60
2018-12-17T12:53:01.557Z,5.07
2018-12-17T12:55:29.963Z,5.10
2018-12-17T12:58:03.539Z,4.50
2018-12-17T13:00:28.836Z,4.50
2018-12-17T13:02:57.391Z,4.63
2018-12-17T13:05:25.779Z,4.23
2018-12-17T13:07:54.177Z,4.30
2018-12-17T13:10:22.560Z,4.37
2018-12-17T13:12:50.961Z,3.93
2018-12-17T13:15:19.352Z,4.30
2018-12-17T13:17:47.768Z,4.00
2018-12-17T13:20:16.140Z,4.20
2018-12-17T13:22:44.532Z,4.40
2018-12-17T13:25:20.004Z,4.73
2018-12-17T13:27:48.401Z,4.23
2018-12-17T13:30:16.896Z,4.50
2018-12-17T13:32:45.288Z,4.63
2018-12-17T13:35:13.669Z,4.90
2018-12-17T13:37:42.084Z,4.70
2018-12-17T13:40:11.485Z,5.03
2018-12-17T13:42:39.876Z,4.37
2018-12-17T13:45:08.480Z,4.50
2018-12-17T13:47:36.999Z,4.90
2018-12-17T13:50:10.904Z,4.57
2018-12-17T13:52:44.619Z,4.63
2018-12-17T13:55:13.540Z,4.37
2018-12-17T13:57:42.008Z,3.97
2018-12-17T14:00:11.886Z,3.97
2018-12-17T14:02:40.344Z,4.00
2018-12-17T14:05:08.738Z,4.40
2018-12-17T14:07:37.109Z,4.90
2018-12-17T14:10:12.656Z,4.30
2018-12-17T14:12:41.112Z,4.60
2018-12-17T14:15:09.743Z,4.93
2018-12-17T14:17:40.120Z,4.27
2018-12-17T14:20:14.412Z,4.27
2018-12-17T14:22:42.801Z,5.10
2018-12-17T14:25:11.190Z,4.50
2018-12-17T14:27:39.560Z,5.07
2018-12-17T14:30:09.819Z,5.17
2018-12-17T14:32:38.216Z,4.03
2018-12-17T14:35:06.872Z,5.00
2018-12-17T14:37:37.320Z,4.33
2018-12-17T14:40:07.155Z,4.77
2018-12-17T14:42:35.544Z,4.73
2018-12-17T14:45:04.701Z,4.37
2018-12-17T14:47:33.112Z,4.27
2018-12-17T14:50:01.505Z,4.43
2018-12-17T14:52:29.867Z,4.97
2018-12-17T14:54:58.270Z,4.57
2018-12-17T14:57:26.634Z,4.73
2018-12-17T14:59:55.020Z,4.73
2018-12-17T15:02:23.477Z,4.40
2018-12-17T15:04:51.909Z,4.33
2018-12-17T15:07:20.413Z,5.20
2018-12-17T15:09:48.880Z,4.47
2018-12-17T15:12:17.344Z,4.13
2018-12-17T15:14:45.709Z,4.97
2018-12-17T15:17:14.224Z,4.73
2018-12-17T15:19:42.645Z,4.77
2018-12-17T15:22:11.055Z,4.47
2018-12-17T15:24:40.516Z,5.20
2018-12-17T15:27:09.317Z,4.90
2018-12-17T15:29:37.716Z,4.53
2018-12-17T15:32:06.109Z,4.33
2018-12-17T15:34:34.504Z,4.43
2018-12-17T15:37:02.962Z,3.90
2018-12-17T15:39:31.360Z,3.83
2018-12-17T15:41:59.843Z,4.00
2018-12-17T15:44:29.008Z,3.53
2018-12-17T15:46:57.467Z,4.37
2018-12-17T15:49:25.840Z,3.77
2018-12-17T15:51:54.224Z,3.63
2018-12-17T15:54:22.609Z,3.70
2018-12-17T15:56:51.014Z,4.13
2018-12-17T15:59:19.853Z,3.70
2018-12-17T16:01:50.158Z,3.63
2018-12-17T16:04:18.704Z,3.70
2018-12-17T16:06:47.085Z,4.27
2018-12-17T16:09:15.540Z,4.20
2018-12-17T16:11:44.076Z,3.93
2018-12-17T16:14:12.484Z,3.53
2018-12-17T16:16:40.876Z,3.17
2018-12-17T16:19:09.283Z,3.83
2018-12-17T16:21:38.209Z,3.47
2018-12-17T16:24:06.784Z,3.80
2018-12-17T16:26:35.227Z,3.57
2018-12-17T16:29:03.746Z,3.63
2018-12-17T16:31:32.132Z,3.73
2018-12-17T16:34:00.536Z,3.60
2018-12-17T16:36:28.956Z,4.40
2018-12-17T16:38:57.366Z,3.50
2018-12-17T16:41:25.745Z,3.10
2018-12-17T16:43:54.560Z,3.50
2018-12-17T16:46:22.937Z,3.17
2018-12-17T16:48:51.334Z,3.90
2018-12-17T16:51:19.749Z,3.67
2018-12-17T16:53:48.150Z,3.77
2018-12-17T16:56:16.605Z,2.97
2018-12-17T16:58:45.017Z,3.53
2018-12-17T17:01:13.430Z,3.57
2018-12-17T17:03:41.849Z,3.67
2018-12-17T17:06:10.232Z,3.80
2018-12-17T17:08:38.610Z,4.03
2018-12-17T17:11:07.161Z,3.70
2018-12-17T17:13:35.647Z,3.67
2018-12-17T17:16:04.238Z,3.83
2018-12-17T17:18:32.622Z,4.10
2018-12-17T17:21:01.028Z,3.43
2018-12-17T17:23:29.532Z,3.93
2018-12-17T17:25:57.900Z,3.80
2018-12-17T17:28:26.293Z,3.30
2018-12-17T17:30:54.672Z,4.20
2018-12-17T17:33:23.065Z,3.93
2018-12-17T17:35:51.448Z,3.73
2018-12-17T17:38:19.861Z,3.33
2018-12-17T17:40:48.244Z,3.00
2018-12-17T17:43:16.776Z,4.10
2018-12-17T17:45:45.277Z,3.70
2018-12-17T17:48:13.705Z,3.40
2018-12-17T17:50:42.080Z,4.40
2018-12-17T17:53:10.583Z,3.53
2018-12-17T17:55:39.069Z,4.10
2018-12-17T17:58:07.466Z,4.40
2018-12-17T18:00:35.901Z,4.20
2018-12-17T18:03:04.733Z,4.57
2018-12-17T18:05:33.180Z,3.43
2018-12-17T18:08:01.558Z,4.23
2018-12-17T18:10:29.948Z,4.13
2018-12-17T18:12:58.346Z,4.17
2018-12-17T18:15:26.806Z,3.80
2018-12-17T18:17:55.216Z,3.87
2018-12-17T18:20:23.641Z,3.97
2018-12-17T18:22:52.033Z,4.70
2018-12-17T18:25:20.468Z,4.37
2018-12-17T18:27:48.861Z,4.33
2018-12-17T18:30:17.248Z,4.53
2018-12-17T18:32:45.707Z,4.40
2018-12-17T18:35:14.250Z,5.20
2018-12-17T18:37:42.663Z,5.20
2018-12-17T18:40:11.052Z,5.10
2018-12-17T18:42:39.474Z,4.90
2018-12-17T18:45:08.367Z,5.13
2018-12-17T18:47:38.575Z,5.77
2018-12-17T18:50:07.598Z,5.23
2018-12-17T18:52:35.988Z,6.37
2018-12-17T18:55:04.682Z,5.83
2018-12-17T18:57:33.131Z,6.13
2018-12-17T19:00:01.545Z,6.63
2018-12-17T19:02:32.979Z,6.37
2018-12-17T19:05:00.433Z,6.97
2018-12-17T19:07:28.889Z,6.67
2018-12-17T19:09:57.332Z,6.67
2018-12-17T19:12:25.792Z,6.90
2018-12-17T19:14:54.570Z,7.03
2018-12-17T19:17:23.076Z,7.13
2018-12-17T19:19:51.448Z,6.30
2018-12-17T19:22:19.852Z,6.87
2018-12-17T19:24:48.253Z,7.27
2018-12-17T19:27:16.777Z,6.70
2018-12-17T19:29:45.168Z,7.80
2018-12-17T19:32:13.593Z,7.87
2018-12-17T19:34:41.956Z,7.73
2018-12-17T19:37:10.385Z,8.37
2018-12-17T19:39:38.809Z,7.80
2018-12-17T19:42:07.240Z,8.27
2018-12-17T19:44:35.956Z,9.63
2018-12-17T19:47:04.360Z,8.43
2018-12-17T19:49:32.816Z,8.00
2018-12-17T19:52:01.304Z,7.87
2018-12-17T19:54:29.694Z,8.17
2018-12-17T19:56:58.786Z,8.40
2018-12-17T19:59:27.177Z,8.20
2018-12-17T20:01:55.603Z,8.20
2018-12-17T20:04:23.996Z,8.90
2018-12-17T20:06:52.716Z,8.50
2018-12-17T20:09:21.178Z,8.93
2018-12-17T20:11:49.583Z,9.27
2018-12-17T20:14:18.023Z,8.07
2018-12-17T20:16:46.428Z,8.50
2018-12-17T20:19:14.836Z,8.17
2018-12-17T20:21:43.364Z,9.20
2018-12-17T20:24:11.781Z,9.27
2018-12-17T20:26:40.785Z,8.80
2018-12-17T20:29:09.560Z,8.80
2018-12-17T20:31:38.065Z,8.47
2018-12-17T20:34:06.449Z,8.97
2018-12-17T20:36:34.824Z,9.50
2018-12-17T20:39:04.314Z,9.73
2018-12-17T20:41:32.685Z,9.07
2018-12-17T20:44:01.124Z,9.60
2018-12-17T20:46:29.510Z,9.77
2018-12-17T20:48:57.933Z,9.93
2018-12-17T20:51:26.308Z,8.80
2018-12-17T20:53:54.729Z,9.57
2018-12-17T20:56:23.098Z,9.03
2018-12-17T20:58:51.499Z,9.53
2018-12-17T21:01:19.876Z,9.67
2018-12-17T21:03:48.284Z,9.63
2018-12-17T21:06:16.732Z,9.57
2018-12-17T21:08:45.116Z,8.73
2018-12-17T21:11:13.643Z,9.03
2018-12-17T21:13:42.131Z,9.50
2018-12-17T21:16:10.541Z,8.30
2018-12-17T21:18:38.941Z,9.03
2018-12-17T21:21:07.317Z,8.53
2018-12-17T21:23:35.933Z,8.50
2018-12-17T21:26:04.372Z,8.53
2018-12-17T21:28:32.771Z,8.60
2018-12-17T21:31:01.153Z,8.67
2018-12-17T21:33:29.586Z,8.93
2018-12-17T21:35:57.980Z,10.00
2018-12-17T21:38:26.370Z,8.93
2018-12-17T21:40:54.781Z,9.03
2018-12-17T21:43:23.161Z,8.23
2018-12-17T21:45:51.535Z,9.50
2018-12-17T21:48:19.932Z,9.10
2018-12-17T21:50:48.337Z,8.40
2018-12-17T21:53:20.444Z,8.23
2018-12-17T21:55:49.308Z,8.67
2018-12-17T21:58:17.737Z,9.20
2018-12-17T22:00:46.148Z,9.07
2018-12-17T22:03:14.535Z,9.13
2018-12-17T22:05:42.938Z,9.10
2018-12-17T22:08:11.326Z,8.63
2018-12-17T22:10:39.718Z,8.20
2018-12-17T22:13:08.124Z,8.47
2018-12-17T22:15:36.511Z,8.47
2018-12-17T22:18:04.911Z,8.33
2018-12-17T22:20:33.356Z,8.50
2018-12-17T22:23:01.741Z,8.33
2018-12-17T22:25:30.116Z,7.10
2018-12-17T22:27:58.540Z,7.33
2018-12-17T22:30:26.917Z,7.30
2018-12-17T22:32:55.341Z,8.30
2018-12-17T22:35:23.757Z,7.47
2018-12-17T22:37:52.163Z,8.17
2018-12-17T22:40:20.538Z,7.43
2018-12-17T22:42:49.055Z,7.50
2018-12-17T22:45:18.535Z,7.70
2018-12-17T22:47:47.180Z,7.27
2018-12-17T22:50:15.820Z,6.60
2018-12-17T22:52:44.312Z,7.30
2018-12-17T22:55:12.767Z,6.83
2018-12-17T22:57:41.294Z,6.60
2018-12-17T23:00:10.257Z,6.10
2018-12-17T23:02:38.644Z,6.70
2018-12-17T23:05:07.309Z,6.97
2018-12-17T23:07:35.914Z,6.73
2018-12-17T23:10:15.877Z,6.73
2018-12-17T23:12:55.587Z,6.17
2018-12-17T23:15:35.163Z,5.43
2018-12-17T23:18:02.792Z,5.37
2018-12-17T23:20:31.307Z,5.77
2018-12-17T23:22:59.827Z,5.40
2018-12-17T23:25:28.200Z,4.93
2018-12-17T23:27:56.573Z,5.53
2018-12-17T23:30:24.975Z,5.27
2018-12-17T23:32:53.589Z,5.50
2018-12-17T23:35:21.961Z,5.87
2018-12-17T23:37:50.367Z,5.50
2018-12-17T23:40:18.766Z,5.30
2018-12-17T23:42:47.182Z,5.23
2018-12-17T23:45:18.945Z,5.97
2018-12-17T23:47:47.579Z,5.83
2018-12-17T23:50:15.993Z,5.33
2018-12-17T23:52:44.364Z,4.83
2018-12-17T23:55:12.756Z,4.80
2018-12-17T23:57:41.128Z,5.80
